createdAt,value
2019-03-13T00:02:45.474Z,6.92
2019-03-13T00:08:51.155Z,6.89
2019-03-13T00:14:57.035Z,6.86
2019-03-13T00:21:02.703Z,6.92
2019-03-13T00:27:08.490Z,6.91
2019-03-13T00:33:14.225Z,6.93
2019-03-13T00:39:19.956Z,6.90
2019-03-13T00:45:25.710Z,6.87
2019-03-13T00:51:31.501Z,6.84
2019-03-13T00:57:37.210Z,6.86
2019-03-13T01:03:52.855Z,6.91
2019-03-13T01:09:58.556Z,6.82
2019-03-13T01:16:04.353Z,6.73
2019-03-13T01:22:10.064Z,6.63
2019-03-13T01:28:15.791Z,6.57
2019-03-13T01:34:52.185Z,6.53
2019-03-13T01:40:57.874Z,6.54
2019-03-13T01:47:03.575Z,6.54
2019-03-13T01:53:09.314Z,6.56
2019-03-13T01:59:15.013Z,6.53
2019-03-13T02:05:20.790Z,6.57
2019-03-13T02:11:26.542Z,6.60
2019-03-13T02:17:32.342Z,6.67
2019-03-13T02:23:38.134Z,6.60
2019-03-13T02:29:43.871Z,6.58
2019-03-13T02:35:49.632Z,6.56
2019-03-13T02:41:55.337Z,6.61
2019-03-13T02:48:01.034Z,6.67
2019-03-13T02:54:06.704Z,6.72
2019-03-13T03:00:13.303Z,6.71
2019-03-13T03:06:19.086Z,6.66
2019-03-13T03:12:24.779Z,6.68
2019-03-13T03:18:30.514Z,6.74
2019-03-13T03:24:36.172Z,6.72
2019-03-13T03:30:41.998Z,6.66
2019-03-13T03:36:47.797Z,6.60
2019-03-13T03:42:53.545Z,6.54
2019-03-13T03:48:59.269Z,6.48
2019-03-13T03:55:05.548Z,6.42
2019-03-13T04:01:11.278Z,6.47
2019-03-13T04:07:17.025Z,6.53
2019-03-13T04:13:22.807Z,6.66
2019-03-13T04:19:28.616Z,6.75
2019-03-13T04:25:38.562Z,6.82
2019-03-13T04:31:44.546Z,6.86
2019-03-13T04:37:50.250Z,6.93
2019-03-13T04:43:55.955Z,6.94
2019-03-13T04:50:01.728Z,6.97
2019-03-13T04:56:07.497Z,7.03
2019-03-13T05:02:13.223Z,7.08
2019-03-13T05:09:14.455Z,7.08
2019-03-13T05:15:20.180Z,7.08
2019-03-13T05:21:26.044Z,7.10
2019-03-13T05:27:31.792Z,7.16
2019-03-13T05:33:37.479Z,7.19
2019-03-13T05:39:43.238Z,7.21
2019-03-13T05:45:48.919Z,7.26
2019-03-13T05:51:54.627Z,7.27
2019-03-13T05:58:00.417Z,7.33
2019-03-13T06:04:06.096Z,7.30
2019-03-13T06:10:11.949Z,7.35
2019-03-13T06:16:17.669Z,7.39
2019-03-13T06:22:23.419Z,7.39
2019-03-13T06:28:29.181Z,7.39
2019-03-13T06:34:34.966Z,7.40
2019-03-13T06:40:40.694Z,7.42
2019-03-13T06:46:46.450Z,7.42
2019-03-13T06:52:52.362Z,7.43
2019-03-13T06:59:13.778Z,7.41
2019-03-13T07:05:34.465Z,7.40
2019-03-13T07:11:56.680Z,7.40
2019-03-13T07:18:39.515Z,7.42
2019-03-13T07:25:07.280Z,7.37
2019-03-13T07:31:31.841Z,7.38
2019-03-13T07:37:56.568Z,7.38
2019-03-13T07:44:29.326Z,7.40
2019-03-13T07:50:57.218Z,7.31
2019-03-13T07:57:27.820Z,7.31
2019-03-13T08:03:53.867Z,7.38
2019-03-13T08:10:24.650Z,7.40
2019-03-13T08:16:44.324Z,7.47
2019-03-13T08:23:04.615Z,7.53
2019-03-13T08:29:16.854Z,7.62
2019-03-13T08:35:44.527Z,7.76
2019-03-13T08:42:12.380Z,7.75
2019-03-13T08:48:28.297Z,7.66
2019-03-13T08:54:40.374Z,7.63
2019-03-13T09:01:13.899Z,7.68
2019-03-13T09:07:40.541Z,7.76
2019-03-13T09:14:05.120Z,7.80
2019-03-13T09:20:21.135Z,7.82
2019-03-13T09:26:35.672Z,7.75
2019-03-13T09:33:09.481Z,7.63
2019-03-13T09:39:23.323Z,7.53
2019-03-13T09:45:45.494Z,7.44
2019-03-13T09:52:10.047Z,7.37
2019-03-13T09:58:29.369Z,7.40
2019-03-13T10:04:56.962Z,7.48
2019-03-13T10:11:24.694Z,7.57
2019-03-13T10:17:50.658Z,7.64
2019-03-13T10:24:03.334Z,7.74
2019-03-13T10:30:29.676Z,7.84
2019-03-13T10:37:12.321Z,7.93
2019-03-13T10:43:36.892Z,8.01
2019-03-13T10:50:04.189Z,8.01
2019-03-13T10:56:43.940Z,8.01
2019-03-13T11:03:08.500Z,8.09
2019-03-13T11:09:22.942Z,8.12
2019-03-13T11:15:45.230Z,8.26
2019-03-13T11:22:09.834Z,8.40
2019-03-13T11:28:40.000Z,8.45
2019-03-13T11:35:02.489Z,8.57
2019-03-13T11:41:21.822Z,8.50
2019-03-13T11:47:55.212Z,8.41
2019-03-13T11:54:16.817Z,8.38
2019-03-13T12:00:53.044Z,8.46
2019-03-13T12:07:17.075Z,8.50
2019-03-13T12:13:36.306Z,8.48
2019-03-13T12:20:12.838Z,8.48
2019-03-13T12:26:49.358Z,8.41
2019-03-13T12:33:10.297Z,8.36
2019-03-13T12:39:24.938Z,8.33
2019-03-13T12:45:44.547Z,8.30
2019-03-13T12:51:58.899Z,8.17
2019-03-13T12:58:23.421Z,8.18
2019-03-13T13:04:59.903Z,8.19
2019-03-13T13:11:33.397Z,8.15
2019-03-13T13:18:04.372Z,8.03
2019-03-13T13:24:10.145Z,8.09
2019-03-13T13:30:16.763Z,8.10
2019-03-13T13:36:22.734Z,8.18
2019-03-13T13:42:28.690Z,8.22
2019-03-13T13:48:34.434Z,8.19
2019-03-13T13:54:40.365Z,8.22
2019-03-13T14:00:46.110Z,8.23
2019-03-13T14:06:51.943Z,8.18
2019-03-13T14:12:57.817Z,8.17
2019-03-13T14:19:03.800Z,8.14
2019-03-13T14:25:09.678Z,8.25
2019-03-13T14:31:15.448Z,8.22
2019-03-13T14:37:21.438Z,8.34
2019-03-13T14:43:27.187Z,8.32
2019-03-13T14:49:33.016Z,8.38
2019-03-13T14:55:38.890Z,8.36
2019-03-13T15:01:44.821Z,8.05
2019-03-13T15:07:50.603Z,7.61
2019-03-13T15:13:56.386Z,7.72
2019-03-13T15:20:02.157Z,7.82
2019-03-13T15:26:07.985Z,7.80
2019-03-13T15:32:13.784Z,7.81
2019-03-13T15:38:19.717Z,7.85
2019-03-13T15:44:25.517Z,7.79
2019-03-13T15:50:31.253Z,7.71
2019-03-13T15:56:37.713Z,7.66
2019-03-13T16:02:43.674Z,7.66
2019-03-13T16:08:49.408Z,7.76
2019-03-13T16:14:55.258Z,7.82
2019-03-13T16:21:01.051Z,7.83
2019-03-13T16:27:06.935Z,7.84
2019-03-13T16:33:12.849Z,7.79
2019-03-13T16:39:18.651Z,7.68
2019-03-13T16:45:24.759Z,7.61
2019-03-13T16:51:30.540Z,7.47
2019-03-13T16:57:36.356Z,7.45
2019-03-13T17:03:42.123Z,7.42
2019-03-13T17:09:47.847Z,7.48
2019-03-13T17:15:53.750Z,7.44
2019-03-13T17:21:59.525Z,7.51
2019-03-13T17:28:05.277Z,7.58
2019-03-13T17:34:11.314Z,7.53
2019-03-13T17:40:19.621Z,7.51
2019-03-13T17:46:25.437Z,7.48
2019-03-13T17:52:31.288Z,7.46
2019-03-13T17:58:37.173Z,7.42
2019-03-13T18:04:42.966Z,7.48
2019-03-13T18:10:48.684Z,7.54
2019-03-13T18:16:54.415Z,7.54
2019-03-13T18:23:00.286Z,7.61
2019-03-13T18:29:06.165Z,7.61
2019-03-13T18:35:12.031Z,7.65
2019-03-13T18:41:17.794Z,7.68
2019-03-13T18:47:23.547Z,7.65
2019-03-13T18:53:29.284Z,7.57
2019-03-13T18:59:38.008Z,7.59
2019-03-13T19:05:42.594Z,7.58
2019-03-13T19:11:48.349Z,7.56
2019-03-13T19:17:54.206Z,7.47
2019-03-13T19:24:02.616Z,7.44
2019-03-13T19:30:16.500Z,7.42
2019-03-13T19:36:22.457Z,7.34
2019-03-13T19:42:28.346Z,7.34
2019-03-13T19:48:34.264Z,7.37
2019-03-13T19:54:40.207Z,7.44
2019-03-13T20:00:46.070Z,7.46
2019-03-13T20:06:51.927Z,7.41
2019-03-13T20:13:01.630Z,7.31
2019-03-13T20:19:17.367Z,7.23
2019-03-13T20:25:23.202Z,7.13
2019-03-13T20:31:29.865Z,7.09
2019-03-13T20:37:35.854Z,7.04
2019-03-13T20:43:41.702Z,7.00
2019-03-13T20:49:47.443Z,7.00
2019-03-13T20:55:53.208Z,6.96
2019-03-13T21:02:00.378Z,6.91
2019-03-13T21:08:06.447Z,6.85
2019-03-13T21:14:12.264Z,6.86
2019-03-13T21:20:18.910Z,6.80
2019-03-13T21:26:24.779Z,6.77
2019-03-13T21:32:30.918Z,6.77
2019-03-13T21:38:36.734Z,6.76
2019-03-13T21:44:42.504Z,6.76
2019-03-13T21:50:50.397Z,6.78
2019-03-13T21:56:55.766Z,6.78
2019-03-13T22:03:01.499Z,6.81
2019-03-13T22:09:07.945Z,6.81
2019-03-13T22:15:14.896Z,6.82
2019-03-13T22:21:20.779Z,6.83
2019-03-13T22:27:26.633Z,6.79
2019-03-13T22:33:32.337Z,6.79
2019-03-13T22:39:38.175Z,6.80
2019-03-13T22:45:44.005Z,6.84
2019-03-13T22:51:49.748Z,6.85
2019-03-13T22:57:55.460Z,6.91
2019-03-13T23:04:01.207Z,6.97
2019-03-13T23:10:25.951Z,7.01
2019-03-13T23:16:34.064Z,7.03
2019-03-13T23:22:39.073Z,7.01
2019-03-13T23:28:45.254Z,7.01
2019-03-13T23:34:50.972Z,7.01
2019-03-13T23:40:56.692Z,7.03
2019-03-13T23:47:02.396Z,7.08
2019-03-13T23:53:08.171Z,7.11
2019-03-13T23:59:13.901Z,7.11
